createdAt,value
2023-06-13T00:03:26.899Z,21
2023-06-13T00:13:26.824Z,20.8
2023-06-13T00:23:26.834Z,20.7
2023-06-13T00:33:26.739Z,20.5
2023-06-13T00:43:26.712Z,20.4
2023-06-13T00:53:26.657Z,20.3
2023-06-13T01:03:26.641Z,20.2
2023-06-13T01:13:26.592Z,20.1
2023-06-13T01:23:26.548Z,20
2023-06-13T01:33:26.507Z,20
2023-06-13T01:43:26.528Z,19.9
2023-06-13T01:53:26.440Z,19.8
2023-06-13T02:03:26.405Z,19.7
2023-06-13T02:13:26.345Z,19.6
2023-06-13T02:23:26.305Z,19.5
2023-06-13T02:33:26.258Z,19.4
2023-06-13T02:43:26.225Z,19.2
2023-06-13T02:53:26.174Z,19.2
2023-06-13T03:03:26.150Z,19.1
2023-06-13T03:13:26.105Z,19
2023-06-13T03:23:26.072Z,18.9
2023-06-13T03:33:26.032Z,18.8
2023-06-13T03:43:25.979Z,18.7
2023-06-13T03:53:25.952Z,18.6
2023-06-13T04:03:25.901Z,18.6
2023-06-13T04:13:25.865Z,18.6
2023-06-13T04:23:25.832Z,18.6
2023-06-13T04:33:25.782Z,18.5
2023-06-13T04:43:25.741Z,18.6
2023-06-13T04:53:25.714Z,18.5
2023-06-13T05:03:25.699Z,18.5
2023-06-13T05:13:25.632Z,18.6
2023-06-13T05:23:25.594Z,18.7
2023-06-13T05:33:25.564Z,18.9
2023-06-13T05:43:25.503Z,19.1
2023-06-13T05:53:25.479Z,19.2
2023-06-13T06:03:25.449Z,19.5
2023-06-13T06:13:25.402Z,19.6
2023-06-13T06:23:25.350Z,19.8
2023-06-13T06:33:25.296Z,20
2023-06-13T06:43:25.378Z,20.2
2023-06-13T06:53:25.245Z,20.3
2023-06-13T07:03:25.204Z,20.5
2023-06-13T07:13:25.161Z,20.6
2023-06-13T07:23:25.127Z,20.7
2023-06-13T07:33:25.082Z,20.9
2023-06-13T07:43:25.206Z,21.1
2023-06-13T07:53:25.079Z,21.3
2023-06-13T08:03:25.070Z,21.4
2023-06-13T08:13:25.130Z,21.5
2023-06-13T08:23:24.891Z,21.8
2023-06-13T08:33:24.986Z,21.9
2023-06-13T08:43:25.006Z,22.1
2023-06-13T08:53:24.949Z,22.3
2023-06-13T09:03:24.694Z,22.5
2023-06-13T09:13:25.052Z,22.7
2023-06-13T09:23:24.800Z,22.8
2023-06-13T09:33:24.761Z,23.1
2023-06-13T09:43:24.724Z,23.2
2023-06-13T09:53:24.618Z,23.4
2023-06-13T10:03:24.622Z,23.5
2023-06-13T10:13:24.586Z,23.8
2023-06-13T10:23:24.564Z,23.9
2023-06-13T10:33:24.329Z,24.1
2023-06-13T10:43:24.303Z,24.2
2023-06-13T10:53:24.449Z,24.4
2023-06-13T11:03:24.207Z,24.3
2023-06-13T11:13:24.333Z,24.6
2023-06-13T11:23:24.323Z,24.6
2023-06-13T11:33:24.282Z,24.7
2023-06-13T11:43:24.236Z,25.3
2023-06-13T11:53:24.212Z,25.4
2023-06-13T12:03:24.110Z,25.4
2023-06-13T12:13:24.113Z,25.5
2023-06-13T12:23:24.089Z,26.2
2023-06-13T12:33:23.860Z,26.1
2023-06-13T12:43:23.950Z,26.8
2023-06-13T12:53:23.785Z,27.4
2023-06-13T13:03:23.919Z,27.8
2023-06-13T13:13:23.721Z,28.4
2023-06-13T13:23:23.837Z,28.8
2023-06-13T13:33:23.611Z,28.2
2023-06-13T13:43:23.788Z,28.8
2023-06-13T13:53:23.546Z,29.8
2023-06-13T14:03:23.640Z,30.1
2023-06-13T14:13:23.546Z,30
2023-06-13T14:23:23.543Z,30.2
2023-06-13T14:33:23.454Z,30.9
2023-06-13T14:43:23.340Z,30.6
2023-06-13T14:53:23.454Z,30.7
2023-06-13T15:03:23.437Z,31.2
2023-06-13T15:13:23.416Z,31
2023-06-13T15:23:23.389Z,30.6
2023-06-13T15:33:23.203Z,31.8
2023-06-13T15:43:23.331Z,31.7
2023-06-13T15:53:23.289Z,31.6
2023-06-13T16:03:23.079Z,32.3
2023-06-13T16:13:23.087Z,31.7
2023-06-13T16:23:23.152Z,31.6
2023-06-13T16:33:23.151Z,31.8
2023-06-13T16:43:23.088Z,31.3
2023-06-13T16:53:22.884Z,31.4
2023-06-13T17:03:23.026Z,31
2023-06-13T17:13:22.873Z,30.7
2023-06-13T17:23:22.837Z,30.6
2023-06-13T17:33:22.762Z,30.2
2023-06-13T17:43:22.807Z,30
2023-06-13T17:53:22.783Z,29.6
2023-06-13T18:03:22.733Z,29.2
2023-06-13T18:13:22.625Z,28.7
2023-06-13T18:23:22.472Z,28.3
2023-06-13T18:33:22.417Z,28
2023-06-13T18:43:22.574Z,27.7
2023-06-13T18:53:22.344Z,27.3
2023-06-13T19:03:22.402Z,27
2023-06-13T19:13:22.488Z,26.8
2023-06-13T19:23:22.338Z,26.5
2023-06-13T19:33:22.383Z,26.3
2023-06-13T19:43:22.186Z,25.9
2023-06-13T19:53:22.178Z,25.7
2023-06-13T20:03:22.265Z,25.4
2023-06-13T20:13:22.179Z,25.1
2023-06-13T20:23:21.989Z,24.8
2023-06-13T20:33:22.093Z,24.4
2023-06-13T20:43:22.072Z,24
2023-06-13T20:53:22.086Z,23.7
2023-06-13T21:03:21.898Z,23.4
2023-06-13T21:13:21.912Z,23.1
2023-06-13T21:23:21.919Z,22.9
2023-06-13T21:33:21.709Z,22.5
2023-06-13T21:43:21.714Z,22.2
2023-06-13T21:53:21.793Z,22.1
2023-06-13T22:03:21.583Z,21.9
2023-06-13T22:13:21.652Z,21.6
2023-06-13T22:23:21.521Z,21.3
2023-06-13T22:33:21.583Z,21.1
2023-06-13T22:43:21.540Z,21
2023-06-13T22:53:21.514Z,20.9
2023-06-13T23:03:21.429Z,20.8
2023-06-13T23:13:21.531Z,20.8
2023-06-13T23:23:21.415Z,20.5
2023-06-13T23:33:21.223Z,20.2
2023-06-13T23:43:21.193Z,20.2
2023-06-13T23:53:21.230Z,20.2
